sensor_id;sensor_type;location;lat;lon;timestamp;temperature;humidity
26099;DHT22;13860;52.370;6.764;2023-10-31T00:02:16;14.10;88.10
26099;DHT22;13860;52.370;6.764;2023-10-31T00:05:25;14.10;88.40
26099;DHT22;13860;52.370;6.764;2023-10-31T00:08:32;14.10;88.20
26099;DHT22;13860;52.370;6.764;2023-10-31T00:11:37;14.10;88.20
26099;DHT22;13860;52.370;6.764;2023-10-31T00:14:45;14.10;88.30
26099;DHT22;13860;52.370;6.764;2023-10-31T00:17:50;14.10;88.20
26099;DHT22;13860;52.370;6.764;2023-10-31T00:21:02;14.10;88.30
26099;DHT22;13860;52.370;6.764;2023-10-31T00:24:08;14.10;88.30
26099;DHT22;13860;52.370;6.764;2023-10-31T00:27:16;13.60;88.00
26099;DHT22;13860;52.370;6.764;2023-10-31T00:30:21;14.10;88.30
26099;DHT22;13860;52.370;6.764;2023-10-31T00:33:29;14.10;88.30
26099;DHT22;13860;52.370;6.764;2023-10-31T00:36:37;14.10;88.30
26099;DHT22;13860;52.370;6.764;2023-10-31T00:39:46;14.20;88.40
26099;DHT22;13860;52.370;6.764;2023-10-31T00:42:51;14.10;88.40
26099;DHT22;13860;52.370;6.764;2023-10-31T00:46:03;14.10;88.40
26099;DHT22;13860;52.370;6.764;2023-10-31T00:49:08;14.10;88.40
26099;DHT22;13860;52.370;6.764;2023-10-31T00:52:18;14.10;88.40
26099;DHT22;13860;52.370;6.764;2023-10-31T00:55:25;14.10;88.50
26099;DHT22;13860;52.370;6.764;2023-10-31T00:58:33;14.10;88.50
26099;DHT22;13860;52.370;6.764;2023-10-31T01:01:42;14.10;88.40
26099;DHT22;13860;52.370;6.764;2023-10-31T01:04:50;14.10;88.50
26099;DHT22;13860;52.370;6.764;2023-10-31T01:07:58;14.10;88.40
26099;DHT22;13860;52.370;6.764;2023-10-31T01:11:06;14.10;88.50
26099;DHT22;13860;52.370;6.764;2023-10-31T01:14:12;14.10;88.40
26099;DHT22;13860;52.370;6.764;2023-10-31T01:17:20;14.10;88.50
26099;DHT22;13860;52.370;6.764;2023-10-31T01:20:26;14.10;88.50
26099;DHT22;13860;52.370;6.764;2023-10-31T01:23:36;14.10;88.50
26099;DHT22;13860;52.370;6.764;2023-10-31T01:26:41;14.10;88.40
26099;DHT22;13860;52.370;6.764;2023-10-31T01:29:48;14.00;88.30
26099;DHT22;13860;52.370;6.764;2023-10-31T01:32:54;14.00;88.20
26099;DHT22;13860;52.370;6.764;2023-10-31T01:36:02;13.90;88.10
26099;DHT22;13860;52.370;6.764;2023-10-31T01:39:10;13.80;88.00
26099;DHT22;13860;52.370;6.764;2023-10-31T01:42:18;13.70;88.70
26099;DHT22;13860;52.370;6.764;2023-10-31T01:45:23;13.60;87.90
26099;DHT22;13860;52.370;6.764;2023-10-31T01:48:32;13.50;88.20
26099;DHT22;13860;52.370;6.764;2023-10-31T01:51:37;13.60;89.80
26099;DHT22;13860;52.370;6.764;2023-10-31T01:54:47;13.50;90.80
26099;DHT22;13860;52.370;6.764;2023-10-31T01:57:53;13.30;88.00
26099;DHT22;13860;52.370;6.764;2023-10-31T02:01:04;13.20;87.70
26099;DHT22;13860;52.370;6.764;2023-10-31T02:04:10;13.00;87.70
26099;DHT22;13860;52.370;6.764;2023-10-31T02:07:18;12.90;87.60
26099;DHT22;13860;52.370;6.764;2023-10-31T02:10:26;12.80;87.80
26099;DHT22;13860;52.370;6.764;2023-10-31T02:13:34;12.80;89.20
26099;DHT22;13860;52.370;6.764;2023-10-31T02:16:40;12.70;88.60
26099;DHT22;13860;52.370;6.764;2023-10-31T02:19:47;12.60;88.80
26099;DHT22;13860;52.370;6.764;2023-10-31T02:22:56;12.50;87.70
26099;DHT22;13860;52.370;6.764;2023-10-31T02:26:04;12.50;87.60
26099;DHT22;13860;52.370;6.764;2023-10-31T02:29:09;12.40;87.60
26099;DHT22;13860;52.370;6.764;2023-10-31T02:32:17;12.40;88.30
26099;DHT22;13860;52.370;6.764;2023-10-31T02:35:22;12.40;89.50
26099;DHT22;13860;52.370;6.764;2023-10-31T02:38:32;12.30;87.70
26099;DHT22;13860;52.370;6.764;2023-10-31T02:41:38;12.10;87.70
26099;DHT22;13860;52.370;6.764;2023-10-31T02:44:45;12.10;87.70
26099;DHT22;13860;52.370;6.764;2023-10-31T02:47:52;12.10;87.70
26099;DHT22;13860;52.370;6.764;2023-10-31T02:50:59;12.00;88.40
26099;DHT22;13860;52.370;6.764;2023-10-31T02:54:08;12.00;88.10
26099;DHT22;13860;52.370;6.764;2023-10-31T02:57:18;11.90;87.90
26099;DHT22;13860;52.370;6.764;2023-10-31T03:00:24;11.90;88.00
26099;DHT22;13860;52.370;6.764;2023-10-31T03:03:31;11.90;88.10
26099;DHT22;13860;52.370;6.764;2023-10-31T03:06:37;11.90;88.80
26099;DHT22;13860;52.370;6.764;2023-10-31T03:09:47;12.00;89.50
26099;DHT22;13860;52.370;6.764;2023-10-31T03:12:54;11.80;88.00
26099;DHT22;13860;52.370;6.764;2023-10-31T03:16:01;11.80;88.10
26099;DHT22;13860;52.370;6.764;2023-10-31T03:19:07;11.50;88.00
26099;DHT22;13860;52.370;6.764;2023-10-31T03:22:14;11.80;88.20
26099;DHT22;13860;52.370;6.764;2023-10-31T03:25:23;11.80;88.20
26099;DHT22;13860;52.370;6.764;2023-10-31T03:28:37;11.80;88.40
26099;DHT22;13860;52.370;6.764;2023-10-31T03:31:42;11.80;88.40
26099;DHT22;13860;52.370;6.764;2023-10-31T03:34:49;11.80;88.50
26099;DHT22;13860;52.370;6.764;2023-10-31T03:37:55;11.70;88.40
26099;DHT22;13860;52.370;6.764;2023-10-31T03:41:05;11.80;88.60
26099;DHT22;13860;52.370;6.764;2023-10-31T03:44:11;11.80;89.00
26099;DHT22;13860;52.370;6.764;2023-10-31T03:47:19;11.80;90.70
26099;DHT22;13860;52.370;6.764;2023-10-31T03:50:24;11.80;89.60
26099;DHT22;13860;52.370;6.764;2023-10-31T03:53:35;11.80;89.50
26099;DHT22;13860;52.370;6.764;2023-10-31T03:56:43;11.70;89.80
26099;DHT22;13860;52.370;6.764;2023-10-31T03:59:54;11.80;90.60
26099;DHT22;13860;52.370;6.764;2023-10-31T04:02:59;11.80;90.10
26099;DHT22;13860;52.370;6.764;2023-10-31T04:06:07;11.80;90.00
26099;DHT22;13860;52.370;6.764;2023-10-31T04:09:12;11.70;89.50
26099;DHT22;13860;52.370;6.764;2023-10-31T04:12:22;11.70;89.60
26099;DHT22;13860;52.370;6.764;2023-10-31T04:15:28;11.70;90.00
26099;DHT22;13860;52.370;6.764;2023-10-31T04:18:36;11.70;89.80
26099;DHT22;13860;52.370;6.764;2023-10-31T04:21:41;11.70;90.10
26099;DHT22;13860;52.370;6.764;2023-10-31T04:24:49;11.80;91.00
26099;DHT22;13860;52.370;6.764;2023-10-31T04:27:57;11.80;90.60
26099;DHT22;13860;52.370;6.764;2023-10-31T04:31:05;11.80;90.50
26099;DHT22;13860;52.370;6.764;2023-10-31T04:34:11;11.70;88.90
26099;DHT22;13860;52.370;6.764;2023-10-31T04:37:20;11.70;89.00
26099;DHT22;13860;52.370;6.764;2023-10-31T04:40:28;11.70;89.20
26099;DHT22;13860;52.370;6.764;2023-10-31T04:43:38;11.80;89.30
26099;DHT22;13860;52.370;6.764;2023-10-31T04:46:44;11.70;89.30
26099;DHT22;13860;52.370;6.764;2023-10-31T04:49:52;11.70;89.80
26099;DHT22;13860;52.370;6.764;2023-10-31T04:52:58;11.00;88.40
26099;DHT22;13860;52.370;6.764;2023-10-31T04:56:12;11.70;88.80
26099;DHT22;13860;52.370;6.764;2023-10-31T04:59:20;11.70;88.90
26099;DHT22;13860;52.370;6.764;2023-10-31T05:02:28;11.70;89.00
26099;DHT22;13860;52.370;6.764;2023-10-31T05:05:34;11.70;88.80
26099;DHT22;13860;52.370;6.764;2023-10-31T05:08:41;11.70;88.90
26099;DHT22;13860;52.370;6.764;2023-10-31T05:11:49;11.70;89.10
26099;DHT22;13860;52.370;6.764;2023-10-31T05:14:59;11.70;88.90
26099;DHT22;13860;52.370;6.764;2023-10-31T05:18:05;11.70;88.80
26099;DHT22;13860;52.370;6.764;2023-10-31T05:21:12;11.60;88.80
26099;DHT22;13860;52.370;6.764;2023-10-31T05:24:18;11.70;89.10
26099;DHT22;13860;52.370;6.764;2023-10-31T05:27:25;11.70;89.00
26099;DHT22;13860;52.370;6.764;2023-10-31T05:30:37;11.60;88.90
26099;DHT22;13860;52.370;6.764;2023-10-31T05:33:45;11.60;88.80
26099;DHT22;13860;52.370;6.764;2023-10-31T05:36:50;11.70;89.00
26099;DHT22;13860;52.370;6.764;2023-10-31T05:39:58;11.60;88.90
26099;DHT22;13860;52.370;6.764;2023-10-31T05:43:04;11.60;89.30
26099;DHT22;13860;52.370;6.764;2023-10-31T05:46:14;11.60;89.00
26099;DHT22;13860;52.370;6.764;2023-10-31T05:49:19;11.60;89.10
26099;DHT22;13860;52.370;6.764;2023-10-31T05:52:28;11.50;89.10
26099;DHT22;13860;52.370;6.764;2023-10-31T05:55:34;11.60;89.10
26099;DHT22;13860;52.370;6.764;2023-10-31T05:58:45;11.60;89.10
26099;DHT22;13860;52.370;6.764;2023-10-31T06:01:57;11.50;89.20
26099;DHT22;13860;52.370;6.764;2023-10-31T06:05:06;11.60;89.50
26099;DHT22;13860;52.370;6.764;2023-10-31T06:08:12;11.60;89.80
26099;DHT22;13860;52.370;6.764;2023-10-31T06:11:20;11.60;89.90
26099;DHT22;13860;52.370;6.764;2023-10-31T06:14:28;11.60;89.90
26099;DHT22;13860;52.370;6.764;2023-10-31T06:17:39;11.60;90.30
26099;DHT22;13860;52.370;6.764;2023-10-31T06:20:45;11.60;90.40
26099;DHT22;13860;52.370;6.764;2023-10-31T06:23:52;11.60;90.30
26099;DHT22;13860;52.370;6.764;2023-10-31T06:27:00;11.60;90.80
26099;DHT22;13860;52.370;6.764;2023-10-31T06:30:12;11.60;90.90
26099;DHT22;13860;52.370;6.764;2023-10-31T06:33:32;11.70;91.10
26099;DHT22;13860;52.370;6.764;2023-10-31T06:36:39;11.60;91.40
26099;DHT22;13860;52.370;6.764;2023-10-31T06:39:45;11.60;91.30
26099;DHT22;13860;52.370;6.764;2023-10-31T06:42:52;11.60;91.90
26099;DHT22;13860;52.370;6.764;2023-10-31T06:46:00;11.60;92.00
26099;DHT22;13860;52.370;6.764;2023-10-31T06:49:12;11.60;93.10
26099;DHT22;13860;52.370;6.764;2023-10-31T06:52:17;11.60;92.90
26099;DHT22;13860;52.370;6.764;2023-10-31T06:55:25;11.50;90.20
26099;DHT22;13860;52.370;6.764;2023-10-31T06:58:30;11.50;90.30
26099;DHT22;13860;52.370;6.764;2023-10-31T07:01:37;11.60;90.60
26099;DHT22;13860;52.370;6.764;2023-10-31T07:04:46;11.40;91.00
26099;DHT22;13860;52.370;6.764;2023-10-31T07:07:54;11.50;91.10
26099;DHT22;13860;52.370;6.764;2023-10-31T07:10:59;11.50;91.60
26099;DHT22;13860;52.370;6.764;2023-10-31T07:14:06;11.50;93.30
26099;DHT22;13860;52.370;6.764;2023-10-31T07:17:12;11.50;90.50
26099;DHT22;13860;52.370;6.764;2023-10-31T07:20:22;11.40;89.10
26099;DHT22;13860;52.370;6.764;2023-10-31T07:23:28;11.40;89.00
26099;DHT22;13860;52.370;6.764;2023-10-31T07:26:37;11.40;89.10
26099;DHT22;13860;52.370;6.764;2023-10-31T07:29:42;11.40;89.00
26099;DHT22;13860;52.370;6.764;2023-10-31T07:32:50;11.40;89.10
26099;DHT22;13860;52.370;6.764;2023-10-31T07:35:59;11.40;89.10
26099;DHT22;13860;52.370;6.764;2023-10-31T07:39:06;11.40;89.20
26099;DHT22;13860;52.370;6.764;2023-10-31T07:42:12;11.40;89.40
26099;DHT22;13860;52.370;6.764;2023-10-31T07:45:20;11.40;89.50
26099;DHT22;13860;52.370;6.764;2023-10-31T07:48:26;11.40;90.00
26099;DHT22;13860;52.370;6.764;2023-10-31T07:51:36;11.40;89.80
26099;DHT22;13860;52.370;6.764;2023-10-31T07:54:41;11.50;90.50
26099;DHT22;13860;52.370;6.764;2023-10-31T07:57:49;11.60;93.30
26099;DHT22;13860;52.370;6.764;2023-10-31T08:00:58;11.60;90.90
26099;DHT22;13860;52.370;6.764;2023-10-31T08:04:06;11.50;89.60
26099;DHT22;13860;52.370;6.764;2023-10-31T08:07:15;11.50;89.50
26099;DHT22;13860;52.370;6.764;2023-10-31T08:10:23;11.50;89.40
26099;DHT22;13860;52.370;6.764;2023-10-31T08:13:29;11.50;89.40
26099;DHT22;13860;52.370;6.764;2023-10-31T08:16:37;11.40;89.40
26099;DHT22;13860;52.370;6.764;2023-10-31T08:19:42;11.50;89.50
26099;DHT22;13860;52.370;6.764;2023-10-31T08:22:53;11.50;89.70
26099;DHT22;13860;52.370;6.764;2023-10-31T08:25:59;11.50;89.90
26099;DHT22;13860;52.370;6.764;2023-10-31T08:29:07;11.50;90.00
26099;DHT22;13860;52.370;6.764;2023-10-31T08:32:12;11.60;90.00
26099;DHT22;13860;52.370;6.764;2023-10-31T08:35:20;11.60;90.20
26099;DHT22;13860;52.370;6.764;2023-10-31T08:38:28;11.60;90.60
26099;DHT22;13860;52.370;6.764;2023-10-31T08:41:49;11.60;89.50
26099;DHT22;13860;52.370;6.764;2023-10-31T08:44:55;11.70;89.60
26099;DHT22;13860;52.370;6.764;2023-10-31T08:48:03;11.70;89.60
26099;DHT22;13860;52.370;6.764;2023-10-31T08:51:09;11.70;89.70
26099;DHT22;13860;52.370;6.764;2023-10-31T08:54:19;11.70;89.60
26099;DHT22;13860;52.370;6.764;2023-10-31T08:57:24;11.80;90.80
26099;DHT22;13860;52.370;6.764;2023-10-31T09:00:32;12.00;91.30
26099;DHT22;13860;52.370;6.764;2023-10-31T09:03:37;11.90;90.60
26099;DHT22;13860;52.370;6.764;2023-10-31T09:06:45;11.80;89.60
26099;DHT22;13860;52.370;6.764;2023-10-31T09:09:53;11.90;89.90
26099;DHT22;13860;52.370;6.764;2023-10-31T09:13:01;11.90;89.70
26099;DHT22;13860;52.370;6.764;2023-10-31T09:16:07;11.90;89.70
26099;DHT22;13860;52.370;6.764;2023-10-31T09:19:14;12.00;89.70
26099;DHT22;13860;52.370;6.764;2023-10-31T09:22:20;12.00;90.00
26099;DHT22;13860;52.370;6.764;2023-10-31T09:25:30;12.00;90.30
26099;DHT22;13860;52.370;6.764;2023-10-31T09:28:36;12.20;90.60
26099;DHT22;13860;52.370;6.764;2023-10-31T09:31:44;12.20;90.10
26099;DHT22;13860;52.370;6.764;2023-10-31T09:34:50;12.20;90.10
26099;DHT22;13860;52.370;6.764;2023-10-31T09:37:58;12.30;90.60
26099;DHT22;13860;52.370;6.764;2023-10-31T09:41:06;12.40;91.60
26099;DHT22;13860;52.370;6.764;2023-10-31T09:44:13;12.40;90.30
26099;DHT22;13860;52.370;6.764;2023-10-31T09:47:20;12.40;90.70
26099;DHT22;13860;52.370;6.764;2023-10-31T09:50:29;12.40;90.00
26099;DHT22;13860;52.370;6.764;2023-10-31T09:53:37;12.50;90.00
26099;DHT22;13860;52.370;6.764;2023-10-31T09:56:48;12.50;89.90
26099;DHT22;13860;52.370;6.764;2023-10-31T09:59:53;12.60;89.90
26099;DHT22;13860;52.370;6.764;2023-10-31T10:03:01;12.60;89.90
26099;DHT22;13860;52.370;6.764;2023-10-31T10:06:07;12.70;90.10
26099;DHT22;13860;52.370;6.764;2023-10-31T10:09:15;12.80;90.00
26099;DHT22;13860;52.370;6.764;2023-10-31T10:12:23;12.90;90.00
26099;DHT22;13860;52.370;6.764;2023-10-31T10:15:30;13.00;90.00
26099;DHT22;13860;52.370;6.764;2023-10-31T10:18:47;13.20;90.00
26099;DHT22;13860;52.370;6.764;2023-10-31T10:21:56;13.20;90.00
26099;DHT22;13860;52.370;6.764;2023-10-31T10:25:01;13.30;89.90
26099;DHT22;13860;52.370;6.764;2023-10-31T10:28:13;13.40;89.90
26099;DHT22;13860;52.370;6.764;2023-10-31T10:31:19;13.60;89.90
26099;DHT22;13860;52.370;6.764;2023-10-31T10:34:26;13.70;90.00
26099;DHT22;13860;52.370;6.764;2023-10-31T10:37:31;13.80;89.80
26099;DHT22;13860;52.370;6.764;2023-10-31T10:40:41;13.90;90.10
26099;DHT22;13860;52.370;6.764;2023-10-31T10:43:50;14.00;89.40
26099;DHT22;13860;52.370;6.764;2023-10-31T10:47:06;14.10;89.20
26099;DHT22;13860;52.370;6.764;2023-10-31T10:50:12;14.20;89.00
26099;DHT22;13860;52.370;6.764;2023-10-31T10:53:22;14.20;89.60
26099;DHT22;13860;52.370;6.764;2023-10-31T10:56:34;14.30;88.80
26099;DHT22;13860;52.370;6.764;2023-10-31T10:59:49;14.40;88.70
26099;DHT22;13860;52.370;6.764;2023-10-31T11:02:56;14.40;88.50
26099;DHT22;13860;52.370;6.764;2023-10-31T11:06:05;14.50;88.40
26099;DHT22;13860;52.370;6.764;2023-10-31T11:09:11;14.50;88.20
26099;DHT22;13860;52.370;6.764;2023-10-31T11:12:20;14.50;88.10
26099;DHT22;13860;52.370;6.764;2023-10-31T11:15:29;14.50;88.10
26099;DHT22;13860;52.370;6.764;2023-10-31T11:18:38;14.50;88.00
26099;DHT22;13860;52.370;6.764;2023-10-31T11:21:54;14.50;87.80
26099;DHT22;13860;52.370;6.764;2023-10-31T11:25:01;14.50;87.70
26099;DHT22;13860;52.370;6.764;2023-10-31T11:28:11;14.50;87.90
26099;DHT22;13860;52.370;6.764;2023-10-31T11:31:22;14.50;87.70
26099;DHT22;13860;52.370;6.764;2023-10-31T11:34:29;14.60;87.70
26099;DHT22;13860;52.370;6.764;2023-10-31T11:37:37;14.60;87.60
26099;DHT22;13860;52.370;6.764;2023-10-31T11:40:59;14.60;87.60
26099;DHT22;13860;52.370;6.764;2023-10-31T11:44:07;14.60;87.40
26099;DHT22;13860;52.370;6.764;2023-10-31T11:47:18;14.60;87.60
26099;DHT22;13860;52.370;6.764;2023-10-31T11:50:25;14.70;87.50
26099;DHT22;13860;52.370;6.764;2023-10-31T11:53:31;14.70;87.40
26099;DHT22;13860;52.370;6.764;2023-10-31T11:56:39;14.80;87.50
26099;DHT22;13860;52.370;6.764;2023-10-31T11:59:44;14.80;87.40
26099;DHT22;13860;52.370;6.764;2023-10-31T12:03:01;14.70;87.10
26099;DHT22;13860;52.370;6.764;2023-10-31T12:06:08;15.20;87.10
26099;DHT22;13860;52.370;6.764;2023-10-31T12:09:15;14.80;86.90
26099;DHT22;13860;52.370;6.764;2023-10-31T12:12:30;14.80;86.80
26099;DHT22;13860;52.370;6.764;2023-10-31T12:15:38;14.80;86.60
26099;DHT22;13860;52.370;6.764;2023-10-31T12:18:59;14.80;86.70
26099;DHT22;13860;52.370;6.764;2023-10-31T12:22:12;14.80;86.60
26099;DHT22;13860;52.370;6.764;2023-10-31T12:25:18;14.70;86.50
26099;DHT22;13860;52.370;6.764;2023-10-31T12:28:26;14.70;86.50
26099;DHT22;13860;52.370;6.764;2023-10-31T12:31:32;14.70;86.50
26099;DHT22;13860;52.370;6.764;2023-10-31T12:34:43;14.70;86.50
26099;DHT22;13860;52.370;6.764;2023-10-31T12:37:50;14.70;86.70
26099;DHT22;13860;52.370;6.764;2023-10-31T12:40:57;14.70;86.50
26099;DHT22;13860;52.370;6.764;2023-10-31T12:44:04;14.70;86.70
26099;DHT22;13860;52.370;6.764;2023-10-31T12:47:21;14.70;86.80
26099;DHT22;13860;52.370;6.764;2023-10-31T12:50:29;14.80;87.00
26099;DHT22;13860;52.370;6.764;2023-10-31T12:53:37;14.80;87.50
26099;DHT22;13860;52.370;6.764;2023-10-31T12:56:43;14.80;88.50
26099;DHT22;13860;52.370;6.764;2023-10-31T12:59:56;14.90;91.60
26099;DHT22;13860;52.370;6.764;2023-10-31T13:03:02;14.90;92.40
26099;DHT22;13860;52.370;6.764;2023-10-31T13:06:17;14.90;90.70
26099;DHT22;13860;52.370;6.764;2023-10-31T13:09:22;14.90;90.50
26099;DHT22;13860;52.370;6.764;2023-10-31T13:12:30;14.90;90.50
26099;DHT22;13860;52.370;6.764;2023-10-31T13:15:35;14.90;90.40
26099;DHT22;13860;52.370;6.764;2023-10-31T13:18:43;14.90;90.70
26099;DHT22;13860;52.370;6.764;2023-10-31T13:21:51;14.90;91.20
26099;DHT22;13860;52.370;6.764;2023-10-31T13:24:58;14.80;90.70
26099;DHT22;13860;52.370;6.764;2023-10-31T13:28:04;14.70;90.70
26099;DHT22;13860;52.370;6.764;2023-10-31T13:31:14;14.70;90.70
26099;DHT22;13860;52.370;6.764;2023-10-31T13:34:20;14.70;90.90
26099;DHT22;13860;52.370;6.764;2023-10-31T13:37:30;14.60;90.50
26099;DHT22;13860;52.370;6.764;2023-10-31T13:40:37;14.70;91.60
26099;DHT22;13860;52.370;6.764;2023-10-31T13:43:44;14.60;90.70
26099;DHT22;13860;52.370;6.764;2023-10-31T13:46:50;14.60;92.30
26099;DHT22;13860;52.370;6.764;2023-10-31T13:49:58;14.90;86.80
26099;DHT22;13860;52.370;6.764;2023-10-31T13:53:06;14.40;85.50
26099;DHT22;13860;52.370;6.764;2023-10-31T13:56:16;14.40;85.50
26099;DHT22;13860;52.370;6.764;2023-10-31T13:59:22;14.40;85.60
26099;DHT22;13860;52.370;6.764;2023-10-31T14:02:29;14.40;85.70
26099;DHT22;13860;52.370;6.764;2023-10-31T14:05:37;14.30;85.80
26099;DHT22;13860;52.370;6.764;2023-10-31T14:08:49;14.40;86.40
26099;DHT22;13860;52.370;6.764;2023-10-31T14:11:54;14.40;86.90
26099;DHT22;13860;52.370;6.764;2023-10-31T14:15:02;14.40;85.80
26099;DHT22;13860;52.370;6.764;2023-10-31T14:18:08;14.40;85.80
26099;DHT22;13860;52.370;6.764;2023-10-31T14:21:16;14.40;85.80
26099;DHT22;13860;52.370;6.764;2023-10-31T14:24:24;14.40;85.90
26099;DHT22;13860;52.370;6.764;2023-10-31T14:27:31;14.40;85.80
26099;DHT22;13860;52.370;6.764;2023-10-31T14:30:36;14.40;85.80
26099;DHT22;13860;52.370;6.764;2023-10-31T14:33:44;14.40;85.90
26099;DHT22;13860;52.370;6.764;2023-10-31T14:36:49;14.40;86.80
26099;DHT22;13860;52.370;6.764;2023-10-31T14:40:00;14.30;85.40
26099;DHT22;13860;52.370;6.764;2023-10-31T14:43:06;14.30;85.40
26099;DHT22;13860;52.370;6.764;2023-10-31T14:46:13;14.30;85.40
26099;DHT22;13860;52.370;6.764;2023-10-31T14:49:19;14.20;85.40
26099;DHT22;13860;52.370;6.764;2023-10-31T14:52:26;14.20;85.40
26099;DHT22;13860;52.370;6.764;2023-10-31T14:55:34;14.10;85.40
26099;DHT22;13860;52.370;6.764;2023-10-31T14:58:41;14.10;85.30
26099;DHT22;13860;52.370;6.764;2023-10-31T15:01:47;14.10;85.40
26099;DHT22;13860;52.370;6.764;2023-10-31T15:04:54;14.00;85.50
26099;DHT22;13860;52.370;6.764;2023-10-31T15:07:59;14.00;85.50
26099;DHT22;13860;52.370;6.764;2023-10-31T15:11:09;14.00;85.50
26099;DHT22;13860;52.370;6.764;2023-10-31T15:14:15;14.00;85.60
26099;DHT22;13860;52.370;6.764;2023-10-31T15:17:22;14.00;85.70
26099;DHT22;13860;52.370;6.764;2023-10-31T15:20:28;14.00;86.00
26099;DHT22;13860;52.370;6.764;2023-10-31T15:23:35;14.00;90.00
26099;DHT22;13860;52.370;6.764;2023-10-31T15:26:43;14.10;88.30
26099;DHT22;13860;52.370;6.764;2023-10-31T15:29:50;13.70;86.60
26099;DHT22;13860;52.370;6.764;2023-10-31T15:32:56;14.00;87.40
26099;DHT22;13860;52.370;6.764;2023-10-31T15:36:09;13.90;87.50
26099;DHT22;13860;52.370;6.764;2023-10-31T15:39:16;13.90;87.70
26099;DHT22;13860;52.370;6.764;2023-10-31T15:42:26;13.90;88.70
26099;DHT22;13860;52.370;6.764;2023-10-31T15:45:31;13.90;86.10
26099;DHT22;13860;52.370;6.764;2023-10-31T15:48:45;13.70;85.90
26099;DHT22;13860;52.370;6.764;2023-10-31T15:51:50;13.70;86.10
26099;DHT22;13860;52.370;6.764;2023-10-31T15:54:57;13.70;86.10
26099;DHT22;13860;52.370;6.764;2023-10-31T15:58:06;13.70;86.10
26099;DHT22;13860;52.370;6.764;2023-10-31T16:01:13;13.60;86.20
26099;DHT22;13860;52.370;6.764;2023-10-31T16:04:19;13.60;86.40
26099;DHT22;13860;52.370;6.764;2023-10-31T16:07:28;13.70;86.80
26099;DHT22;13860;52.370;6.764;2023-10-31T16:10:33;13.70;87.30
26099;DHT22;13860;52.370;6.764;2023-10-31T16:13:43;13.60;87.00
26099;DHT22;13860;52.370;6.764;2023-10-31T16:16:49;13.60;88.00
26099;DHT22;13860;52.370;6.764;2023-10-31T16:19:57;13.40;85.20
26099;DHT22;13860;52.370;6.764;2023-10-31T16:23:02;13.40;85.80
26099;DHT22;13860;52.370;6.764;2023-10-31T16:26:10;13.40;86.00
26099;DHT22;13860;52.370;6.764;2023-10-31T16:29:18;13.30;86.00
26099;DHT22;13860;52.370;6.764;2023-10-31T16:32:25;13.30;86.00
26099;DHT22;13860;52.370;6.764;2023-10-31T16:35:31;13.30;86.00
26099;DHT22;13860;52.370;6.764;2023-10-31T16:38:38;13.20;86.00
26099;DHT22;13860;52.370;6.764;2023-10-31T16:41:44;13.20;86.40
26099;DHT22;13860;52.370;6.764;2023-10-31T16:44:54;13.20;86.20
26099;DHT22;13860;52.370;6.764;2023-10-31T16:48:00;13.10;86.20
26099;DHT22;13860;52.370;6.764;2023-10-31T16:51:14;13.10;86.30
26099;DHT22;13860;52.370;6.764;2023-10-31T16:54:20;13.00;86.30
26099;DHT22;13860;52.370;6.764;2023-10-31T16:57:27;13.10;86.40
26099;DHT22;13860;52.370;6.764;2023-10-31T17:00:36;13.10;86.50
26099;DHT22;13860;52.370;6.764;2023-10-31T17:03:43;13.10;86.50
26099;DHT22;13860;52.370;6.764;2023-10-31T17:06:49;13.50;86.80
26099;DHT22;13860;52.370;6.764;2023-10-31T17:09:56;13.00;86.50
26099;DHT22;13860;52.370;6.764;2023-10-31T17:13:02;13.10;86.70
26099;DHT22;13860;52.370;6.764;2023-10-31T17:16:13;13.00;86.80
26099;DHT22;13860;52.370;6.764;2023-10-31T17:19:19;13.00;86.70
26099;DHT22;13860;52.370;6.764;2023-10-31T17:22:26;13.00;86.70
26099;DHT22;13860;52.370;6.764;2023-10-31T17:25:35;13.00;86.90
26099;DHT22;13860;52.370;6.764;2023-10-31T17:28:43;13.10;86.90
26099;DHT22;13860;52.370;6.764;2023-10-31T17:31:53;13.00;87.50
26099;DHT22;13860;52.370;6.764;2023-10-31T17:35:12;13.00;88.40
26099;DHT22;13860;52.370;6.764;2023-10-31T17:38:19;13.00;89.40
26099;DHT22;13860;52.370;6.764;2023-10-31T17:41:28;13.10;91.60
26099;DHT22;13860;52.370;6.764;2023-10-31T17:44:33;13.20;90.00
26099;DHT22;13860;52.370;6.764;2023-10-31T17:47:44;13.10;90.50
26099;DHT22;13860;52.370;6.764;2023-10-31T17:50:49;13.10;90.10
26099;DHT22;13860;52.370;6.764;2023-10-31T17:53:57;13.00;90.20
26099;DHT22;13860;52.370;6.764;2023-10-31T17:57:02;13.10;90.20
26099;DHT22;13860;52.370;6.764;2023-10-31T18:00:12;13.10;90.10
26099;DHT22;13860;52.370;6.764;2023-10-31T18:03:24;13.00;90.20
26099;DHT22;13860;52.370;6.764;2023-10-31T18:06:31;13.00;90.30
26099;DHT22;13860;52.370;6.764;2023-10-31T18:09:37;13.00;90.60
26099;DHT22;13860;52.370;6.764;2023-10-31T18:12:44;13.10;90.80
26099;DHT22;13860;52.370;6.764;2023-10-31T18:15:51;12.90;91.00
26099;DHT22;13860;52.370;6.764;2023-10-31T18:19:01;12.90;90.20
26099;DHT22;13860;52.370;6.764;2023-10-31T18:22:07;13.00;89.60
26099;DHT22;13860;52.370;6.764;2023-10-31T18:25:15;13.00;89.90
26099;DHT22;13860;52.370;6.764;2023-10-31T18:28:20;12.90;89.80
26099;DHT22;13860;52.370;6.764;2023-10-31T18:31:27;13.00;90.00
26099;DHT22;13860;52.370;6.764;2023-10-31T18:34:37;13.00;90.50
26099;DHT22;13860;52.370;6.764;2023-10-31T18:37:45;12.90;90.40
26099;DHT22;13860;52.370;6.764;2023-10-31T18:40:51;13.00;90.30
26099;DHT22;13860;52.370;6.764;2023-10-31T18:43:59;13.00;90.40
26099;DHT22;13860;52.370;6.764;2023-10-31T18:47:24;13.00;90.60
26099;DHT22;13860;52.370;6.764;2023-10-31T18:50:37;12.90;91.20
26099;DHT22;13860;52.370;6.764;2023-10-31T18:53:42;13.00;90.80
26099;DHT22;13860;52.370;6.764;2023-10-31T18:56:52;12.90;91.00
26099;DHT22;13860;52.370;6.764;2023-10-31T19:00:00;12.90;90.30
26099;DHT22;13860;52.370;6.764;2023-10-31T19:03:09;12.90;90.30
26099;DHT22;13860;52.370;6.764;2023-10-31T19:06:18;12.90;90.50
26099;DHT22;13860;52.370;6.764;2023-10-31T19:09:25;12.90;90.70
26099;DHT22;13860;52.370;6.764;2023-10-31T19:12:31;12.90;90.70
26099;DHT22;13860;52.370;6.764;2023-10-31T19:15:38;12.90;89.60
26099;DHT22;13860;52.370;6.764;2023-10-31T19:18:44;12.90;90.10
26099;DHT22;13860;52.370;6.764;2023-10-31T19:21:54;12.80;90.30
26099;DHT22;13860;52.370;6.764;2023-10-31T19:24:59;12.90;90.40
26099;DHT22;13860;52.370;6.764;2023-10-31T19:28:10;12.90;91.10
26099;DHT22;13860;52.370;6.764;2023-10-31T19:31:15;12.90;92.10
26099;DHT22;13860;52.370;6.764;2023-10-31T19:34:22;13.00;92.20
26099;DHT22;13860;52.370;6.764;2023-10-31T19:37:30;12.80;90.60
26099;DHT22;13860;52.370;6.764;2023-10-31T19:40:38;12.90;91.80
26099;DHT22;13860;52.370;6.764;2023-10-31T19:43:43;12.70;87.80
26099;DHT22;13860;52.370;6.764;2023-10-31T19:46:51;12.70;87.90